createdAt,value
2022-09-17T00:00:47.978Z,17.53
2022-09-17T00:01:48.185Z,17.53
2022-09-17T00:02:48.357Z,17.52
2022-09-17T00:03:48.479Z,17.52
2022-09-17T00:04:48.659Z,17.50
2022-09-17T00:05:48.833Z,17.53
2022-09-17T00:06:48.990Z,17.52
2022-09-17T00:07:49.177Z,17.55
2022-09-17T00:08:49.335Z,17.52
2022-09-17T00:09:49.532Z,17.52
2022-09-17T00:10:49.691Z,17.52
2022-09-17T00:11:49.861Z,17.52
2022-09-17T00:12:50.012Z,17.55
2022-09-17T00:13:50.362Z,17.50
2022-09-17T00:14:50.363Z,17.53
2022-09-17T00:15:50.545Z,17.52
2022-09-17T00:16:50.704Z,17.55
2022-09-17T00:17:50.859Z,17.53
2022-09-17T00:18:51.055Z,17.55
2022-09-17T00:19:51.234Z,17.52
2022-09-17T00:20:51.414Z,17.52
2022-09-17T00:21:51.574Z,17.52
2022-09-17T00:22:51.735Z,17.52
2022-09-17T00:23:51.917Z,17.52
2022-09-17T00:24:52.078Z,17.50
2022-09-17T00:25:52.256Z,17.50
2022-09-17T00:26:52.417Z,17.50
2022-09-17T00:27:52.594Z,17.50
2022-09-17T00:28:52.764Z,17.47
2022-09-17T00:29:52.917Z,17.46
2022-09-17T00:30:53.122Z,17.49
2022-09-17T00:31:53.239Z,17.50
2022-09-17T00:32:53.404Z,17.50
2022-09-17T00:33:53.807Z,17.50
2022-09-17T00:34:53.739Z,17.49
2022-09-17T00:35:53.906Z,17.50
2022-09-17T00:36:54.068Z,17.49
2022-09-17T00:37:54.240Z,17.50
2022-09-17T00:38:54.424Z,17.50
2022-09-17T00:39:54.617Z,17.47
2022-09-17T00:40:54.742Z,17.47
2022-09-17T00:41:54.900Z,17.52
2022-09-17T00:42:55.073Z,17.49
2022-09-17T00:43:55.244Z,17.50
2022-09-17T00:44:55.412Z,17.52
2022-09-17T00:45:55.573Z,17.49
2022-09-17T00:46:55.769Z,17.47
2022-09-17T00:47:55.913Z,17.50
2022-09-17T00:48:56.079Z,17.52
2022-09-17T00:49:56.261Z,17.49
2022-09-17T00:50:56.413Z,17.50
2022-09-17T00:52:00.328Z,17.50
2022-09-17T00:52:56.735Z,17.50
2022-09-17T00:53:56.959Z,17.52
2022-09-17T00:54:57.118Z,17.52
2022-09-17T00:55:57.302Z,17.53
2022-09-17T00:56:57.461Z,17.55
2022-09-17T00:57:57.615Z,17.53
2022-09-17T00:58:57.861Z,17.52
2022-09-17T00:59:57.958Z,17.52
2022-09-17T01:00:58.150Z,17.52
2022-09-17T01:01:58.376Z,17.49
2022-09-17T01:02:58.490Z,17.53
2022-09-17T01:03:58.649Z,17.52
2022-09-17T01:04:58.808Z,17.50
2022-09-17T01:05:59.019Z,17.52
2022-09-17T01:06:59.184Z,17.52
2022-09-17T01:07:59.339Z,17.52
2022-09-17T01:08:59.499Z,17.52
2022-09-17T01:09:59.660Z,17.46
2022-09-17T01:10:59.830Z,17.49
2022-09-17T01:11:59.990Z,17.50
2022-09-17T01:13:00.152Z,17.52
2022-09-17T01:14:00.310Z,17.52
2022-09-17T01:15:00.473Z,17.52
2022-09-17T01:16:00.723Z,17.52
2022-09-17T01:17:00.823Z,17.53
2022-09-17T01:18:00.987Z,17.50
2022-09-17T01:19:01.152Z,17.49
2022-09-17T01:20:01.313Z,17.57
2022-09-17T01:21:01.493Z,17.58
2022-09-17T01:22:01.655Z,17.52
2022-09-17T01:23:01.822Z,17.52
2022-09-17T01:24:01.993Z,17.53
2022-09-17T01:25:02.176Z,17.52
2022-09-17T01:26:02.337Z,17.53
2022-09-17T01:27:02.494Z,17.57
2022-09-17T01:28:02.648Z,17.60
2022-09-17T01:29:02.934Z,17.55
2022-09-17T01:30:02.981Z,17.57
2022-09-17T01:31:03.237Z,17.58
2022-09-17T01:32:03.347Z,17.58
2022-09-17T01:33:03.547Z,17.58
2022-09-17T01:34:03.721Z,17.57
2022-09-17T01:35:03.887Z,17.57
2022-09-17T01:36:04.047Z,17.58
2022-09-17T01:37:04.205Z,17.60
2022-09-17T01:38:04.363Z,17.57
2022-09-17T01:39:04.539Z,17.58
2022-09-17T01:40:04.839Z,17.57
2022-09-17T01:41:04.880Z,17.61
2022-09-17T01:42:05.038Z,17.61
2022-09-17T01:43:05.244Z,17.60
2022-09-17T01:44:05.410Z,17.65
2022-09-17T01:45:05.596Z,17.60
2022-09-17T01:46:05.781Z,17.60
2022-09-17T01:47:12.949Z,17.62
2022-09-17T01:48:06.116Z,17.61
2022-09-17T01:49:06.271Z,17.57
2022-09-17T01:50:06.431Z,17.57
2022-09-17T01:51:06.603Z,17.55
2022-09-17T01:52:06.757Z,17.55
2022-09-17T01:53:06.931Z,17.57
2022-09-17T01:54:07.097Z,17.58
2022-09-17T01:55:07.266Z,17.60
2022-09-17T01:56:07.420Z,17.61
2022-09-17T01:57:07.579Z,17.62
2022-09-17T01:58:07.754Z,17.62
2022-09-17T01:59:07.919Z,17.62
2022-09-17T02:00:08.080Z,17.60
2022-09-17T02:01:08.289Z,17.61
2022-09-17T02:02:08.458Z,17.62
2022-09-17T02:03:08.635Z,17.62
2022-09-17T02:04:08.776Z,17.61
2022-09-17T02:05:08.935Z,17.64
2022-09-17T02:06:09.105Z,17.62
2022-09-17T02:07:09.280Z,17.64
2022-09-17T02:08:09.436Z,17.62
2022-09-17T02:09:12.631Z,17.62
2022-09-17T02:10:10.785Z,17.64
2022-09-17T02:11:09.994Z,17.65
2022-09-17T02:12:10.145Z,17.62
2022-09-17T02:13:10.298Z,17.67
2022-09-17T02:14:10.475Z,17.65
2022-09-17T02:15:10.638Z,17.62
2022-09-17T02:16:10.833Z,17.65
2022-09-17T02:17:10.983Z,17.65
2022-09-17T02:18:11.140Z,17.64
2022-09-17T02:19:11.316Z,17.62
2022-09-17T02:20:11.490Z,17.67
2022-09-17T02:21:11.653Z,17.61
2022-09-17T02:22:11.811Z,17.62
2022-09-17T02:23:11.970Z,17.61
2022-09-17T02:24:12.150Z,17.61
2022-09-17T02:25:12.314Z,17.61
2022-09-17T02:26:12.483Z,17.61
2022-09-17T02:27:12.642Z,17.64
2022-09-17T02:28:12.825Z,17.64
2022-09-17T02:29:12.983Z,17.64
2022-09-17T02:30:13.142Z,17.62
2022-09-17T02:31:13.394Z,17.64
2022-09-17T02:32:13.486Z,17.62
2022-09-17T02:33:13.660Z,17.67
2022-09-17T02:34:13.823Z,17.64
2022-09-17T02:35:13.982Z,17.62
2022-09-17T02:36:14.135Z,17.65
2022-09-17T02:37:14.329Z,17.67
2022-09-17T02:38:14.505Z,17.65
2022-09-17T02:39:14.670Z,17.68
2022-09-17T02:40:14.855Z,17.64
2022-09-17T02:41:15.016Z,17.65
2022-09-17T02:42:15.177Z,17.65
2022-09-17T02:43:15.347Z,17.65
2022-09-17T02:44:15.508Z,17.67
2022-09-17T02:45:15.666Z,17.65
2022-09-17T02:46:15.856Z,17.61
2022-09-17T02:47:16.019Z,17.64
2022-09-17T02:48:16.188Z,17.65
2022-09-17T02:49:16.358Z,17.64
2022-09-17T02:50:16.514Z,17.64
2022-09-17T02:51:16.707Z,17.64
2022-09-17T02:52:16.869Z,17.65
2022-09-17T02:53:17.052Z,17.65
2022-09-17T02:54:17.209Z,17.68
2022-09-17T02:55:17.370Z,17.68
2022-09-17T02:56:17.530Z,17.70
2022-09-17T02:57:17.691Z,17.65
2022-09-17T02:58:17.897Z,17.67
2022-09-17T02:59:18.021Z,17.67
2022-09-17T03:00:18.183Z,17.68
2022-09-17T03:01:18.412Z,17.68
2022-09-17T03:02:18.633Z,17.67
2022-09-17T03:03:18.722Z,17.67
2022-09-17T03:04:18.882Z,17.64
2022-09-17T03:05:19.054Z,17.65
2022-09-17T03:06:19.213Z,17.70
2022-09-17T03:07:19.372Z,17.67
2022-09-17T03:08:19.575Z,17.65
2022-09-17T03:09:19.738Z,17.62
2022-09-17T03:10:19.898Z,17.67
2022-09-17T03:11:20.055Z,17.64
2022-09-17T03:12:20.222Z,17.65
2022-09-17T03:13:20.394Z,17.67
2022-09-17T03:14:20.561Z,17.65
2022-09-17T03:15:20.723Z,17.67
2022-09-17T03:16:20.912Z,17.61
2022-09-17T03:17:21.051Z,17.60
2022-09-17T03:18:21.217Z,17.61
2022-09-17T03:19:21.389Z,17.64
2022-09-17T03:20:21.540Z,17.64
2022-09-17T03:21:21.697Z,17.62
2022-09-17T03:22:21.868Z,17.60
2022-09-17T03:23:22.048Z,17.62
2022-09-17T03:24:22.208Z,17.62
2022-09-17T03:25:22.374Z,17.64
2022-09-17T03:26:22.556Z,17.62
2022-09-17T03:27:22.731Z,17.60
2022-09-17T03:28:22.893Z,17.61
2022-09-17T03:29:23.079Z,17.64
2022-09-17T03:30:23.232Z,17.61
2022-09-17T03:31:23.510Z,17.64
2022-09-17T03:32:23.589Z,17.61
2022-09-17T03:33:23.744Z,17.61
2022-09-17T03:34:23.928Z,17.62
2022-09-17T03:35:24.062Z,17.61
2022-09-17T03:36:24.251Z,17.61
2022-09-17T03:37:24.416Z,17.61
2022-09-17T03:38:24.573Z,17.60
2022-09-17T03:39:24.732Z,17.61
2022-09-17T03:40:24.984Z,17.58
2022-09-17T03:41:25.084Z,17.57
2022-09-17T03:42:25.241Z,17.61
2022-09-17T03:43:25.404Z,17.57
2022-09-17T03:44:25.555Z,17.58
2022-09-17T03:45:25.718Z,17.60
2022-09-17T03:46:25.929Z,17.58
2022-09-17T03:47:26.039Z,17.53
2022-09-17T03:48:26.196Z,17.55
2022-09-17T03:49:26.376Z,17.57
2022-09-17T03:50:26.540Z,17.52
2022-09-17T03:51:26.734Z,17.50
2022-09-17T03:52:26.879Z,17.52
2022-09-17T03:53:27.043Z,17.47
2022-09-17T03:54:27.227Z,17.53
2022-09-17T03:55:27.388Z,17.53
2022-09-17T03:56:27.570Z,17.53
2022-09-17T03:57:27.740Z,17.47
2022-09-17T03:58:27.898Z,17.49
2022-09-17T03:59:28.060Z,17.47
2022-09-17T04:00:28.218Z,17.47
2022-09-17T04:01:28.459Z,17.49
2022-09-17T04:02:28.629Z,17.46
2022-09-17T04:03:28.737Z,17.49
2022-09-17T04:04:28.889Z,17.47
2022-09-17T04:05:29.039Z,17.49
2022-09-17T04:06:29.250Z,17.47
2022-09-17T04:07:29.411Z,17.47
2022-09-17T04:08:29.571Z,17.46
2022-09-17T04:09:30.002Z,17.49
2022-09-17T04:10:29.891Z,17.45
2022-09-17T04:11:30.101Z,17.46
2022-09-17T04:12:30.263Z,17.46
2022-09-17T04:13:30.422Z,17.49
2022-09-17T04:14:30.581Z,17.46
2022-09-17T04:15:30.765Z,17.45
2022-09-17T04:16:31.060Z,17.45
2022-09-17T04:17:31.123Z,17.45
2022-09-17T04:18:31.295Z,17.42
2022-09-17T04:19:31.467Z,17.42
2022-09-17T04:20:31.623Z,17.43
2022-09-17T04:21:31.825Z,17.43
2022-09-17T04:22:31.994Z,17.43
2022-09-17T04:23:32.243Z,17.42
2022-09-17T04:24:32.314Z,17.40
2022-09-17T04:25:32.467Z,17.43
2022-09-17T04:26:32.672Z,17.40
2022-09-17T04:27:32.827Z,17.42
2022-09-17T04:28:32.988Z,17.40
2022-09-17T04:29:33.177Z,17.43
2022-09-17T04:30:33.339Z,17.42
2022-09-17T04:31:33.556Z,17.43
2022-09-17T04:32:33.658Z,17.40
2022-09-17T04:33:33.849Z,17.40
2022-09-17T04:34:34.011Z,17.40
2022-09-17T04:35:34.169Z,17.40
2022-09-17T04:36:34.351Z,17.39
2022-09-17T04:37:34.515Z,17.40
2022-09-17T04:38:34.671Z,17.38
2022-09-17T04:39:34.868Z,17.40
2022-09-17T04:40:35.203Z,17.42
2022-09-17T04:41:35.242Z,17.43
2022-09-17T04:42:35.380Z,17.38
2022-09-17T04:43:35.532Z,17.39
2022-09-17T04:44:35.702Z,17.42
2022-09-17T04:45:35.865Z,17.40
2022-09-17T04:46:36.086Z,17.39
2022-09-17T04:47:36.203Z,17.40
2022-09-17T04:48:36.363Z,17.39
2022-09-17T04:49:36.531Z,17.39
2022-09-17T04:50:36.683Z,17.39
2022-09-17T04:51:36.885Z,17.42
2022-09-17T04:52:37.043Z,17.39
2022-09-17T04:53:37.205Z,17.35
2022-09-17T04:54:37.365Z,17.39
2022-09-17T04:55:37.526Z,17.40
2022-09-17T04:56:37.705Z,17.39
2022-09-17T04:57:37.865Z,17.39
2022-09-17T04:58:38.029Z,17.38
2022-09-17T04:59:38.206Z,17.34
2022-09-17T05:00:38.408Z,17.39
2022-09-17T05:01:38.570Z,17.40
2022-09-17T05:02:38.709Z,17.42
2022-09-17T05:03:38.877Z,17.40
2022-09-17T05:04:39.058Z,17.39
2022-09-17T05:05:39.237Z,17.38
2022-09-17T05:06:39.437Z,17.39
2022-09-17T05:07:39.579Z,17.42
2022-09-17T05:08:39.758Z,17.39
2022-09-17T05:09:39.940Z,17.38
2022-09-17T05:10:40.119Z,17.40
2022-09-17T05:11:40.320Z,17.38
2022-09-17T05:12:40.472Z,17.40
2022-09-17T05:13:40.653Z,17.40
2022-09-17T05:14:40.822Z,17.42
2022-09-17T05:15:41.067Z,17.43
2022-09-17T05:16:41.196Z,17.45
2022-09-17T05:17:41.382Z,17.43
2022-09-17T05:18:41.542Z,17.39
2022-09-17T05:19:41.705Z,17.42
2022-09-17T05:20:41.873Z,17.42
2022-09-17T05:21:42.053Z,17.39
2022-09-17T05:22:42.213Z,17.42
2022-09-17T05:23:42.414Z,17.45
2022-09-17T05:24:42.573Z,17.42
2022-09-17T05:25:42.744Z,17.40
2022-09-17T05:26:42.935Z,17.39
2022-09-17T05:27:43.085Z,17.42
2022-09-17T05:28:43.263Z,17.40
2022-09-17T05:29:43.438Z,17.43
2022-09-17T05:30:43.616Z,17.43
2022-09-17T05:31:43.856Z,17.42
2022-09-17T05:32:43.966Z,17.40
2022-09-17T05:33:44.155Z,17.38
2022-09-17T05:34:44.334Z,17.39
2022-09-17T05:35:44.510Z,17.40
2022-09-17T05:36:44.698Z,17.38
2022-09-17T05:37:44.842Z,17.42
2022-09-17T05:38:45.022Z,17.38
2022-09-17T05:39:45.199Z,17.39
2022-09-17T05:40:45.386Z,17.38
2022-09-17T05:41:45.569Z,17.39
2022-09-17T05:42:45.753Z,17.38
2022-09-17T05:43:45.930Z,17.38
2022-09-17T05:44:46.119Z,17.35
2022-09-17T05:45:46.270Z,17.35
2022-09-17T05:46:46.517Z,17.38
2022-09-17T05:47:46.604Z,17.38
2022-09-17T05:48:46.781Z,17.34
2022-09-17T05:49:46.971Z,17.40
2022-09-17T05:50:47.161Z,17.38
2022-09-17T05:51:47.342Z,17.38
2022-09-17T05:52:47.533Z,17.32
2022-09-17T05:53:47.672Z,17.34
2022-09-17T05:54:47.859Z,17.34
2022-09-17T05:55:48.041Z,17.38
2022-09-17T05:56:48.204Z,17.34
2022-09-17T05:57:48.383Z,17.31
2022-09-17T05:58:48.574Z,17.32
2022-09-17T05:59:48.715Z,17.32
2022-09-17T06:00:48.952Z,17.31
2022-09-17T06:01:49.117Z,17.34
2022-09-17T06:02:49.332Z,17.30
2022-09-17T06:03:49.471Z,17.32
2022-09-17T06:04:49.616Z,17.30
2022-09-17T06:05:49.768Z,17.32
2022-09-17T06:06:49.952Z,17.34
2022-09-17T06:07:50.098Z,17.34
2022-09-17T06:08:50.296Z,17.31
2022-09-17T06:09:50.458Z,17.31
2022-09-17T06:10:50.611Z,17.30
2022-09-17T06:11:50.800Z,17.38
2022-09-17T06:12:50.987Z,17.30
2022-09-17T06:13:51.170Z,17.28
2022-09-17T06:14:51.372Z,17.32
2022-09-17T06:15:51.573Z,17.34
2022-09-17T06:16:51.710Z,17.38
2022-09-17T06:17:51.867Z,17.34
2022-09-17T06:18:52.020Z,17.34
2022-09-17T06:19:52.219Z,17.35
2022-09-17T06:20:52.375Z,17.38
2022-09-17T06:21:52.550Z,17.38
2022-09-17T06:22:52.732Z,17.38
2022-09-17T06:23:52.891Z,17.40
2022-09-17T06:24:53.100Z,17.39
2022-09-17T06:25:53.253Z,17.39
2022-09-17T06:26:53.435Z,17.43
2022-09-17T06:27:53.592Z,17.46
2022-09-17T06:28:53.777Z,17.42
2022-09-17T06:29:53.958Z,17.45
2022-09-17T06:30:54.103Z,17.46
2022-09-17T06:31:54.319Z,17.47
2022-09-17T06:32:54.462Z,17.46
2022-09-17T06:33:55.090Z,17.49
2022-09-17T06:34:54.800Z,17.50
2022-09-17T06:35:54.962Z,17.50
2022-09-17T06:36:55.117Z,17.53
2022-09-17T06:37:55.292Z,17.53
2022-09-17T06:38:55.493Z,17.53
2022-09-17T06:39:55.696Z,17.57
2022-09-17T06:40:55.826Z,17.58
2022-09-17T06:41:56.020Z,17.60
2022-09-17T06:42:56.223Z,17.60
2022-09-17T06:43:56.431Z,17.64
2022-09-17T06:44:58.868Z,17.67
2022-09-17T06:45:56.705Z,17.68
2022-09-17T06:46:56.920Z,17.68
2022-09-17T06:47:57.069Z,17.68
2022-09-17T06:48:57.252Z,17.72
2022-09-17T06:49:57.447Z,17.75
2022-09-17T06:50:57.609Z,17.75
2022-09-17T06:51:57.789Z,17.78
2022-09-17T06:52:57.979Z,17.80
2022-09-17T06:53:58.163Z,17.83
2022-09-17T06:54:58.370Z,17.86
2022-09-17T06:56:02.318Z,17.90
2022-09-17T06:56:59.710Z,17.86
2022-09-17T06:57:58.893Z,17.90
2022-09-17T06:58:59.150Z,17.90
2022-09-17T06:59:59.279Z,17.90
2022-09-17T07:00:59.479Z,17.95
2022-09-17T07:01:59.667Z,17.92
2022-09-17T07:02:59.805Z,17.97
2022-09-17T07:04:00.008Z,17.98
2022-09-17T07:05:00.171Z,17.95
2022-09-17T07:06:00.368Z,17.97
2022-09-17T07:07:00.534Z,18.00
2022-09-17T07:08:00.725Z,18.01
2022-09-17T07:09:00.913Z,18.04
2022-09-17T07:10:01.065Z,18.02
2022-09-17T07:11:01.266Z,18.08
2022-09-17T07:12:01.427Z,18.13
2022-09-17T07:13:01.611Z,18.15
2022-09-17T07:14:01.787Z,18.15
2022-09-17T07:15:01.988Z,18.20
2022-09-17T07:16:02.233Z,18.19
2022-09-17T07:17:02.316Z,18.27
2022-09-17T07:18:02.471Z,18.27
2022-09-17T07:19:02.659Z,18.33
2022-09-17T07:20:02.859Z,18.37
2022-09-17T07:21:03.017Z,18.38
2022-09-17T07:22:03.186Z,18.44
2022-09-17T07:23:03.369Z,18.51
2022-09-17T07:24:03.580Z,18.54
2022-09-17T07:25:03.723Z,18.58
2022-09-17T07:26:03.907Z,18.64
2022-09-17T07:27:04.093Z,18.71
2022-09-17T07:28:04.275Z,18.72
2022-09-17T07:29:04.470Z,18.73
2022-09-17T07:30:04.650Z,18.78
2022-09-17T07:31:04.871Z,18.81
2022-09-17T07:32:05.042Z,18.87
2022-09-17T07:33:05.206Z,18.90
2022-09-17T07:34:05.482Z,18.93
2022-09-17T07:35:05.572Z,18.94
2022-09-17T07:36:05.730Z,18.98
2022-09-17T07:37:05.919Z,18.98
2022-09-17T07:38:06.105Z,19.01
2022-09-17T07:39:06.308Z,19.05
2022-09-17T07:40:06.486Z,19.08
2022-09-17T07:41:06.616Z,19.11
2022-09-17T07:42:06.799Z,19.12
2022-09-17T07:43:07.005Z,19.12
2022-09-17T07:44:07.152Z,19.15
2022-09-17T07:45:07.327Z,19.21
2022-09-17T07:46:07.538Z,19.21
2022-09-17T07:47:07.715Z,19.21
2022-09-17T07:48:07.917Z,19.24
2022-09-17T07:49:08.057Z,19.24
2022-09-17T07:50:08.252Z,19.24
2022-09-17T07:51:08.408Z,19.31
2022-09-17T07:52:08.593Z,19.31
2022-09-17T07:53:08.790Z,19.33
2022-09-17T07:54:08.946Z,19.36
2022-09-17T07:55:09.134Z,19.36
2022-09-17T07:56:11.817Z,19.37
2022-09-17T07:57:09.499Z,19.40
2022-09-17T07:58:09.678Z,19.42
2022-09-17T07:59:09.809Z,19.43
2022-09-17T08:00:10.004Z,19.48
2022-09-17T08:01:10.166Z,19.49
2022-09-17T08:02:10.445Z,19.51
2022-09-17T08:03:10.616Z,19.52
2022-09-17T08:04:10.691Z,19.56
2022-09-17T08:05:10.882Z,19.61
2022-09-17T08:06:11.079Z,19.64
2022-09-17T08:07:11.252Z,19.67
2022-09-17T08:08:11.442Z,19.68
2022-09-17T08:09:11.621Z,19.70
2022-09-17T08:10:11.815Z,19.71
2022-09-17T08:11:12.001Z,19.71
2022-09-17T08:12:12.164Z,19.75
2022-09-17T08:13:12.364Z,19.75
2022-09-17T08:14:12.517Z,19.79
2022-09-17T08:15:12.695Z,19.86
2022-09-17T08:16:12.960Z,19.86
2022-09-17T08:17:13.067Z,19.98
2022-09-17T08:18:13.208Z,19.96
2022-09-17T08:19:13.395Z,20.01
2022-09-17T08:20:13.547Z,20.02
2022-09-17T08:21:13.737Z,20.05
2022-09-17T08:22:13.919Z,20.15
2022-09-17T08:23:14.087Z,20.21
2022-09-17T08:24:14.239Z,20.30
2022-09-17T08:25:14.396Z,20.30
2022-09-17T08:26:14.558Z,20.36
2022-09-17T08:27:14.752Z,20.45
2022-09-17T08:28:14.911Z,20.52
2022-09-17T08:29:15.089Z,20.57
2022-09-17T08:30:15.251Z,20.59
2022-09-17T08:31:15.490Z,20.63
2022-09-17T08:32:15.581Z,20.64
2022-09-17T08:33:15.737Z,20.67
2022-09-17T08:34:15.904Z,20.72
2022-09-17T08:35:16.091Z,20.72
2022-09-17T08:36:16.265Z,20.75
2022-09-17T08:37:16.463Z,20.76
2022-09-17T08:38:16.640Z,20.76
2022-09-17T08:39:16.823Z,20.75
2022-09-17T08:40:17.057Z,20.82
2022-09-17T08:41:17.148Z,20.86
2022-09-17T08:42:17.324Z,20.91
2022-09-17T08:43:17.476Z,20.94
2022-09-17T08:44:17.666Z,20.93
2022-09-17T08:45:17.856Z,20.94
2022-09-17T08:46:18.077Z,20.97
2022-09-17T08:47:18.217Z,20.97
2022-09-17T08:48:18.366Z,21.00
2022-09-17T08:49:18.549Z,21.01
2022-09-17T08:50:18.732Z,21.04
2022-09-17T08:51:18.900Z,21.11
2022-09-17T08:52:19.068Z,21.12
2022-09-17T08:53:19.260Z,21.12
2022-09-17T08:54:19.421Z,21.16
2022-09-17T08:55:19.587Z,21.19
2022-09-17T08:56:19.740Z,21.23
2022-09-17T08:57:19.916Z,21.23
2022-09-17T08:58:20.089Z,21.29
2022-09-17T08:59:21.802Z,21.29
2022-09-17T09:00:20.527Z,21.31
2022-09-17T09:01:20.636Z,21.26
2022-09-17T09:02:20.854Z,21.29
2022-09-17T09:03:20.957Z,21.35
2022-09-17T09:04:21.082Z,21.32
2022-09-17T09:05:21.264Z,21.32
2022-09-17T09:06:21.433Z,21.41
2022-09-17T09:07:21.624Z,21.44
2022-09-17T09:08:21.797Z,21.53
2022-09-17T09:09:21.970Z,21.60
2022-09-17T09:10:22.139Z,21.62
2022-09-17T09:11:22.322Z,21.68
2022-09-17T09:12:22.468Z,21.74
2022-09-17T09:13:22.653Z,21.79
2022-09-17T09:14:22.828Z,21.90
2022-09-17T09:15:23.025Z,22.00
2022-09-17T09:16:23.222Z,22.06
2022-09-17T09:17:23.360Z,22.16
2022-09-17T09:18:23.530Z,22.19
2022-09-17T09:19:23.710Z,22.21
2022-09-17T09:20:23.866Z,22.24
2022-09-17T09:21:24.036Z,22.33
2022-09-17T09:22:24.217Z,22.45
2022-09-17T09:23:24.402Z,22.46
2022-09-17T09:24:24.574Z,22.51
2022-09-17T09:25:24.748Z,22.53
2022-09-17T09:26:24.929Z,22.67
2022-09-17T09:27:25.095Z,22.67
2022-09-17T09:28:25.288Z,22.70
2022-09-17T09:29:25.451Z,22.68
2022-09-17T09:30:25.643Z,22.70
2022-09-17T09:31:25.882Z,22.68
2022-09-17T09:32:26.012Z,22.75
2022-09-17T09:33:26.225Z,22.77
2022-09-17T09:34:26.385Z,22.80
2022-09-17T09:35:26.572Z,22.84
2022-09-17T09:36:26.730Z,22.94
2022-09-17T09:37:26.921Z,23.04
2022-09-17T09:38:27.123Z,23.11
2022-09-17T09:39:27.303Z,23.12
2022-09-17T09:40:27.497Z,23.14
2022-09-17T09:41:27.630Z,23.17
2022-09-17T09:42:27.782Z,23.14
2022-09-17T09:43:46.361Z,23.17
2022-09-17T09:44:29.104Z,23.17
2022-09-17T09:45:28.276Z,23.23
2022-09-17T09:46:28.585Z,23.22
2022-09-17T09:47:28.636Z,23.27
2022-09-17T09:48:28.827Z,23.27
2022-09-17T09:49:28.960Z,23.30
2022-09-17T09:50:43.015Z,23.36
2022-09-17T09:51:30.309Z,23.35
2022-09-17T09:52:29.477Z,23.39
2022-09-17T09:53:29.677Z,23.42
2022-09-17T09:54:29.836Z,23.48
2022-09-17T09:55:29.992Z,23.48
2022-09-17T09:56:30.169Z,23.57
2022-09-17T09:57:30.358Z,23.57
2022-09-17T09:58:30.525Z,23.54
2022-09-17T09:59:30.724Z,23.54
2022-09-17T10:00:30.890Z,23.63
2022-09-17T10:01:31.131Z,23.71
2022-09-17T10:02:31.469Z,23.76
2022-09-17T10:03:31.386Z,23.76
2022-09-17T10:04:31.563Z,23.81
2022-09-17T10:05:31.741Z,23.81
2022-09-17T10:06:31.941Z,23.85
2022-09-17T10:07:32.107Z,23.85
2022-09-17T10:08:32.273Z,23.82
2022-09-17T10:09:32.456Z,23.83
2022-09-17T10:10:32.641Z,23.76
2022-09-17T10:11:32.823Z,23.72
2022-09-17T10:12:32.994Z,23.74
2022-09-17T10:13:33.164Z,23.71
2022-09-17T10:14:33.353Z,23.74
2022-09-17T10:15:33.535Z,23.75
2022-09-17T10:16:33.786Z,23.79
2022-09-17T10:17:33.923Z,23.83
2022-09-17T10:18:34.053Z,23.83
2022-09-17T10:19:34.239Z,23.85
2022-09-17T10:20:34.418Z,23.89
2022-09-17T10:21:34.607Z,23.93
2022-09-17T10:22:34.781Z,23.98
2022-09-17T10:23:34.937Z,24.04
2022-09-17T10:24:35.111Z,24.08
2022-09-17T10:25:35.298Z,24.04
2022-09-17T10:26:35.442Z,24.04
2022-09-17T10:27:35.631Z,24.08
2022-09-17T10:28:35.790Z,24.12
2022-09-17T10:29:36.009Z,24.19
2022-09-17T10:30:36.134Z,24.23
2022-09-17T10:31:36.334Z,24.29
2022-09-17T10:32:36.478Z,24.39
2022-09-17T10:33:36.632Z,24.46
2022-09-17T10:34:36.806Z,24.47
2022-09-17T10:35:37.009Z,24.49
2022-09-17T10:36:38.033Z,24.50
2022-09-17T10:37:37.333Z,24.46
2022-09-17T10:38:37.528Z,24.44
2022-09-17T10:39:37.663Z,24.49
2022-09-17T10:40:37.939Z,24.47
2022-09-17T10:41:38.008Z,24.49
2022-09-17T10:42:38.194Z,24.46
2022-09-17T10:43:38.336Z,24.46
2022-09-17T10:44:38.505Z,24.46
2022-09-17T10:45:38.678Z,24.47
2022-09-17T10:46:38.892Z,24.46
2022-09-17T10:47:38.988Z,24.50
2022-09-17T10:48:39.152Z,24.53
2022-09-17T10:49:39.321Z,24.51
2022-09-17T10:50:39.508Z,24.49
2022-09-17T10:51:39.697Z,24.47
2022-09-17T10:52:39.864Z,24.53
2022-09-17T10:53:40.011Z,24.60
2022-09-17T10:54:40.208Z,24.61
2022-09-17T10:55:40.391Z,24.65
2022-09-17T10:56:40.560Z,24.60
2022-09-17T10:57:40.735Z,24.65
2022-09-17T10:58:42.443Z,24.64
2022-09-17T10:59:41.091Z,24.68
2022-09-17T11:00:41.281Z,24.69
2022-09-17T11:01:41.550Z,24.68
2022-09-17T11:02:41.668Z,24.65
2022-09-17T11:03:41.802Z,24.61
2022-09-17T11:04:41.963Z,24.59
2022-09-17T11:05:42.142Z,24.51
2022-09-17T11:06:42.334Z,24.51
2022-09-17T11:07:42.521Z,24.44
2022-09-17T11:08:42.714Z,24.42
2022-09-17T11:09:42.879Z,24.36
2022-09-17T11:10:43.065Z,24.31
2022-09-17T11:11:43.252Z,24.28
2022-09-17T11:12:43.426Z,24.27
2022-09-17T11:13:43.625Z,24.27
2022-09-17T11:14:43.800Z,24.17
2022-09-17T11:15:44.032Z,24.17
2022-09-17T11:16:44.164Z,24.11
2022-09-17T11:17:44.358Z,24.11
2022-09-17T11:18:44.489Z,24.11
2022-09-17T11:19:44.650Z,24.06
2022-09-17T11:20:44.830Z,24.04
2022-09-17T11:21:45.010Z,24.03
2022-09-17T11:22:45.170Z,24.04
2022-09-17T11:23:45.352Z,24.08
2022-09-17T11:24:45.534Z,24.16
2022-09-17T11:25:45.714Z,24.21
2022-09-17T11:26:45.903Z,24.27
2022-09-17T11:27:46.110Z,24.34
2022-09-17T11:28:46.253Z,24.41
2022-09-17T11:29:46.400Z,24.38
2022-09-17T11:30:46.584Z,24.47
2022-09-17T11:31:46.827Z,24.50
2022-09-17T11:32:46.947Z,24.50
2022-09-17T11:33:47.146Z,24.56
2022-09-17T11:34:47.326Z,24.54
2022-09-17T11:35:47.474Z,24.60
2022-09-17T11:36:47.655Z,24.59
2022-09-17T11:37:47.834Z,24.57
2022-09-17T11:38:48.027Z,24.64
2022-09-17T11:39:48.197Z,24.64
2022-09-17T11:40:48.365Z,24.61
2022-09-17T11:41:48.516Z,24.64
2022-09-17T11:42:48.716Z,24.61
2022-09-17T11:43:48.869Z,24.60
2022-09-17T11:44:49.037Z,24.59
2022-09-17T11:45:49.197Z,24.54
2022-09-17T11:46:49.427Z,24.53
2022-09-17T11:47:49.529Z,24.56
2022-09-17T11:48:49.709Z,24.53
2022-09-17T11:49:49.850Z,24.53
2022-09-17T11:50:50.030Z,24.56
2022-09-17T11:51:50.226Z,24.56
2022-09-17T11:52:50.391Z,24.56
2022-09-17T11:53:50.560Z,24.57
2022-09-17T11:54:50.746Z,24.56
2022-09-17T11:55:50.922Z,24.59
2022-09-17T11:56:51.127Z,24.60
2022-09-17T11:57:51.263Z,24.59
2022-09-17T11:58:51.444Z,24.64
2022-09-17T11:59:51.622Z,24.71
2022-09-17T12:00:51.805Z,24.68
2022-09-17T12:01:52.027Z,24.78
2022-09-17T12:02:52.206Z,24.94
2022-09-17T12:03:52.326Z,24.98
2022-09-17T12:04:52.509Z,25.05
2022-09-17T12:05:52.704Z,25.03
2022-09-17T12:06:52.834Z,25.01
2022-09-17T12:07:52.989Z,24.93
2022-09-17T12:08:53.174Z,24.93
2022-09-17T12:09:53.366Z,24.87
2022-09-17T12:10:53.561Z,24.81
2022-09-17T12:11:53.699Z,24.78
2022-09-17T12:12:53.889Z,24.68
2022-09-17T12:13:54.068Z,24.65
2022-09-17T12:14:54.262Z,24.61
2022-09-17T12:15:54.513Z,24.54
2022-09-17T12:16:54.637Z,24.51
2022-09-17T12:18:14.207Z,24.46
2022-09-17T12:18:55.980Z,24.46
2022-09-17T12:19:55.176Z,24.47
2022-09-17T12:20:55.342Z,24.56
2022-09-17T12:21:55.520Z,24.66
2022-09-17T12:22:55.703Z,24.76
2022-09-17T12:23:55.882Z,24.90
2022-09-17T12:24:56.080Z,25.03
2022-09-17T12:25:56.244Z,25.16
2022-09-17T12:26:56.432Z,25.18
2022-09-17T12:27:56.614Z,25.25
2022-09-17T12:28:56.793Z,25.34
2022-09-17T12:30:00.214Z,25.45
2022-09-17T12:30:57.183Z,25.50
2022-09-17T12:31:57.323Z,25.62
2022-09-17T12:32:57.506Z,25.72
2022-09-17T12:33:57.703Z,25.74
2022-09-17T12:34:57.847Z,25.76
2022-09-17T12:36:05.979Z,25.80
2022-09-17T12:36:59.206Z,25.78
2022-09-17T12:37:58.397Z,25.80
2022-09-17T12:39:02.826Z,25.84
2022-09-17T12:39:58.840Z,25.87
2022-09-17T12:40:58.918Z,25.90
2022-09-17T12:41:59.119Z,25.90
2022-09-17T12:42:59.298Z,25.87
2022-09-17T12:43:59.568Z,25.84
2022-09-17T12:44:59.627Z,25.81
2022-09-17T12:45:59.763Z,25.76
2022-09-17T12:46:59.995Z,25.71
2022-09-17T12:48:00.130Z,25.63
2022-09-17T12:49:00.312Z,25.62
2022-09-17T12:50:00.490Z,25.53
2022-09-17T12:51:00.672Z,25.58
2022-09-17T12:52:00.856Z,25.63
2022-09-17T12:53:01.052Z,25.66
2022-09-17T12:54:01.222Z,25.78
2022-09-17T12:55:01.422Z,25.80